Time;durP1;ratioP1;P1;durP2;ratioP2;P2;SDS_P1;SDS_P2;PMS_P1;PMS_P2;Temp;Humidity;BMP_temperature;BMP_pressure;BME280_temperature;BME280_humidity;BME280_pressure;Samples;Min_cycle;Max_cycle;Signal;HPM_P1;HPM_P2
2021/07/10 00:00:26;;;;;;;0.40;0.40;;;;;;;14.45;80.32;97358.56;29395;205;63009;-55
2021/07/10 00:00:58;;;;;;;0.40;0.40;;;;;;;14.43;80.42;97353.44;29395;232;63016;-55
2021/07/10 00:01:29;;;;;;;0.40;0.40;;;;;;;14.45;80.16;97362.13;29395;218;63009;-56
2021/07/10 00:02:01;;;;;;;0.40;0.40;;;;;;;14.44;80.10;97360.50;29395;224;63005;-67
2021/07/10 00:02:33;;;;;;;0.50;0.50;;;;;;;14.44;80.26;97355.03;29395;231;63009;-67
2021/07/10 00:03:05;;;;;;;0.50;0.50;;;;;;;14.44;80.43;97354.22;29395;319;63004;-66
2021/07/10 00:03:36;;;;;;;0.40;0.40;;;;;;;14.45;80.16;97356.66;29395;202;63009;-56
2021/07/10 00:04:07;;;;;;;0.40;0.40;;;;;;;14.46;79.93;97355.53;29395;224;63008;-56
2021/07/10 00:04:40;;;;;;;0.40;0.40;;;;;;;14.45;80.01;97350.38;29394;325;64013;-57
2021/07/10 00:05:15;;;;;;;0.40;0.40;;;;;;;14.45;80.03;97356.66;29395;230;63004;-56
2021/07/10 00:05:46;;;;;;;0.45;0.45;;;;;;;14.44;80.09;97352.31;29395;213;63008;-56
2021/07/10 00:06:18;;;;;;;0.40;0.40;;;;;;;14.45;79.99;97351.19;29395;223;63005;-57
2021/07/10 00:06:49;;;;;;;0.40;0.40;;;;;;;14.45;80.36;97353.94;29395;211;63009;-65
2021/07/10 00:07:20;;;;;;;0.40;0.40;;;;;;;14.44;80.43;97346.84;29395;210;63005;-66
2021/07/10 00:07:52;;;;;;;0.40;0.40;;;;;;;14.44;80.59;97352.31;29395;197;63009;-66
2021/07/10 00:08:24;;;;;;;0.50;0.50;;;;;;;14.44;80.42;97343.31;29395;309;63005;-66
2021/07/10 00:08:55;;;;;;;0.40;0.40;;;;;;;14.45;80.26;97344.94;29394;210;64013;-66
2021/07/10 00:09:27;;;;;;;0.40;0.40;;;;;;;14.44;80.07;97337.84;29395;202;63005;-55
2021/07/10 00:10:00;;;;;;;0.40;0.40;;;;;;;14.44;80.03;97338.66;29395;268;63009;-56
2021/07/10 00:10:32;;;;;;;0.40;0.40;;;;;;;14.44;80.58;97341.37;29394;211;64009;-56
2021/07/10 00:11:05;;;;;;;0.50;0.50;;;;;;;14.44;80.38;97344.12;29395;346;63009;-65
2021/07/10 00:11:36;;;;;;;0.40;0.40;;;;;;;14.44;80.21;97344.12;29395;215;63004;-56
2021/07/10 00:12:08;;;;;;;0.40;0.40;;;;;;;14.44;80.25;97338.66;29395;219;63009;-56
2021/07/10 00:12:40;;;;;;;0.40;0.40;;;;;;;14.45;80.03;97342.19;29395;205;63004;-67
2021/07/10 00:13:13;;;;;;;0.40;0.40;;;;;;;14.44;80.42;97338.66;29394;220;64013;-67
2021/07/10 00:13:48;;;;;;;0.50;0.50;;;;;;;14.44;80.39;97344.12;29395;281;63005;-66
2021/07/10 00:14:19;;;;;;;0.40;0.40;;;;;;;14.43;80.02;97347.97;29395;197;63009;-56
2021/07/10 00:14:51;;;;;;;0.40;0.40;;;;;;;14.44;80.07;97344.12;29395;352;63005;-65
2021/07/10 00:15:24;;;;;;;0.40;0.40;;;;;;;14.45;80.31;97339.47;29394;215;64013;-55
2021/07/10 00:15:55;;;;;;;0.40;0.40;;;;;;;14.45;80.25;97342.19;29395;225;63005;-68
2021/07/10 00:16:26;;;;;;;0.40;0.40;;;;;;;14.45;79.96;97339.47;29394;211;64013;-57
2021/07/10 00:17:00;;;;;;;0.40;0.40;;;;;;;14.44;80.38;97333.19;29395;222;63005;-56
2021/07/10 00:17:31;;;;;;;0.40;0.40;;;;;;;14.43;80.25;97345.22;29395;305;63009;-66
2021/07/10 00:18:03;;;;;;;0.40;0.40;;;;;;;14.42;80.30;97340.87;29395;258;63004;-66
2021/07/10 00:18:35;;;;;;;0.40;0.40;;;;;;;14.43;80.50;97337.03;29395;196;63009;-67
2021/07/10 00:19:06;;;;;;;0.40;0.40;;;;;;;14.44;80.22;97338.66;29394;282;64009;-57
2021/07/10 00:19:37;;;;;;;0.40;0.40;;;;;;;14.43;80.25;97338.97;29395;270;63009;-56
2021/07/10 00:20:11;;;;;;;0.40;0.40;;;;;;;14.42;80.32;97340.87;29395;278;63004;-56
2021/07/10 00:20:43;;;;;;;0.40;0.40;;;;;;;14.43;80.46;97337.03;29395;196;63008;-66
2021/07/10 00:21:14;;;;;;;0.40;0.40;;;;;;;14.43;80.23;97342.50;29395;206;63005;-66
2021/07/10 00:21:45;;;;;;;0.40;0.40;;;;;;;14.43;80.76;97336.22;29395;324;63009;-66
2021/07/10 00:22:17;;;;;;;0.55;0.55;;;;;;;14.43;81.06;97331.59;29395;237;63010;-56
2021/07/10 00:22:49;;;;;;;0.40;0.40;;;;;;;14.41;80.88;97339.28;29395;222;63009;-55
2021/07/10 00:23:21;;;;;;;0.40;0.40;;;;;;;14.40;81.16;97327.50;29395;199;63005;-57
2021/07/10 00:23:54;;;;;;;0.40;0.40;;;;;;;14.38;81.18;97334.37;29394;313;64013;-67
2021/07/10 00:24:25;;;;;;;0.40;0.40;;;;;;;14.36;80.98;97331.97;29395;222;63005;-66
2021/07/10 00:24:56;;;;;;;0.40;0.40;;;;;;;14.36;80.94;97325.69;29395;204;63017;-66
2021/07/10 00:25:29;;;;;;;0.40;0.40;;;;;;;14.36;80.75;97321.03;29395;205;63009;-56
2021/07/10 00:26:00;;;;;;;0.40;0.40;;;;;;;14.37;80.68;97327.31;29395;314;63009;-67
2021/07/10 00:26:32;;;;;;;0.40;0.40;;;;;;;14.37;80.67;97327.31;29395;229;63004;-66
2021/07/10 00:27:04;;;;;;;0.40;0.40;;;;;;;14.37;80.75;97332.78;29395;204;63023;-66
2021/07/10 00:27:36;;;;;;;0.40;0.40;;;;;;;14.36;80.97;97334.69;29395;305;63017;-55
2021/07/10 00:28:08;;;;;;;0.40;0.40;;;;;;;14.35;81.35;97329.53;29394;209;64013;-55
2021/07/10 00:28:40;;;;;;;0.40;0.40;;;;;;;14.36;80.73;97331.16;29395;230;63005;-66
2021/07/10 00:29:12;;;;;;;0.40;0.40;;;;;;;14.35;80.87;97330.34;29395;300;63009;-56
2021/07/10 00:29:44;;;;;;;0.40;0.40;;;;;;;14.36;80.58;97325.69;29395;240;63005;-55
2021/07/10 00:30:19;;;;;;;0.40;0.40;;;;;;;14.35;80.57;97329.53;29394;219;64014;-56
2021/07/10 00:30:52;;;;;;;0.40;0.40;;;;;;;14.36;80.75;97331.16;29395;221;63005;-56
2021/07/10 00:31:23;;;;;;;0.40;0.40;;;;;;;14.35;80.65;97333.06;29394;348;64013;-67
2021/07/10 00:31:54;;;;;;;0.40;0.40;;;;;;;14.35;80.84;97326.81;29394;295;64009;-65
2021/07/10 00:32:27;;;;;;;0.40;0.40;;;;;;;14.34;81.04;97328.72;29395;234;63009;-67
2021/07/10 00:32:58;;;;;;;0.40;0.40;;;;;;;14.34;80.92;97330.66;29394;203;64009;-56
2021/07/10 00:33:30;;;;;;;0.40;0.40;;;;;;;14.32;81.03;97325.50;29395;219;63009;-56
2021/07/10 00:34:01;;;;;;;0.40;0.40;;;;;;;14.33;80.79;97326.31;29395;204;63004;-67
2021/07/10 00:34:32;;;;;;;0.40;0.40;;;;;;;14.33;80.86;97324.38;29395;220;63020;-56
2021/07/10 00:35:07;;;;;;;0.40;0.40;;;;;;;14.34;80.95;97327.91;29395;242;63010;-56
2021/07/10 00:35:39;;;;;;;0.40;0.40;;;;;;;14.33;80.93;97321.66;29395;287;63008;-55
2021/07/10 00:36:12;;;;;;;0.40;0.40;;;;;;;14.32;81.21;97321.97;29395;224;63005;-65
2021/07/10 00:36:43;;;;;;;0.40;0.40;;;;;;;14.32;81.23;97324.69;29395;252;63009;-66
2021/07/10 00:37:14;;;;;;;0.40;0.40;;;;;;;14.34;81.06;97327.91;29395;280;63005;-67
2021/07/10 00:37:47;;;;;;;0.40;0.40;;;;;;;14.34;80.53;97322.47;29395;321;63009;-66
2021/07/10 00:38:18;;;;;;;0.40;0.40;;;;;;;14.37;80.56;97327.31;29394;217;64009;-56
2021/07/10 00:38:49;;;;;;;0.40;0.40;;;;;;;14.39;80.00;97325.09;29395;224;63009;-57
2021/07/10 00:39:20;;;;;;;0.40;0.40;;;;;;;14.39;80.09;97319.63;29395;219;63005;-65
2021/07/10 00:39:52;;;;;;;0.40;0.40;;;;;;;14.38;80.56;97323.47;29395;221;63020;-66
2021/07/10 00:40:23;;;;;;;0.40;0.40;;;;;;;14.37;81.08;97324.59;29395;196;63009;-66
2021/07/10 00:40:54;;;;;;;0.40;0.40;;;;;;;14.35;81.24;97324.09;29395;216;63009;-67
2021/07/10 00:41:25;;;;;;;0.40;0.40;;;;;;;14.33;81.32;97320.84;29395;231;63004;-57
2021/07/10 00:41:57;;;;;;;0.40;0.40;;;;;;;14.33;81.11;97320.84;29394;272;64013;-66
2021/07/10 00:42:28;;;;;;;0.40;0.40;;;;;;;14.31;81.16;97318.41;29395;286;63004;-57
2021/07/10 00:43:00;;;;;;;0.40;0.40;;;;;;;14.30;80.99;97321.47;29395;239;63008;-66
2021/07/10 00:43:31;;;;;;;0.40;0.40;;;;;;;14.31;81.01;97317.63;29395;230;63016;-65
2021/07/10 00:44:03;;;;;;;0.40;0.40;;;;;;;14.30;80.73;97316.00;29395;278;63014;-67
2021/07/10 00:44:34;;;;;;;0.40;0.40;;;;;;;14.29;81.07;97319.84;29394;197;64009;-57
2021/07/10 00:45:09;;;;;;;0.40;0.40;;;;;;;14.29;80.84;97322.56;29395;210;63009;-56
2021/07/10 00:45:41;;;;;;;0.40;0.40;;;;;;;14.28;81.00;97313.56;29395;205;63005;-66
2021/07/10 00:46:17;;;;;;;0.40;0.40;;;;;;;14.28;81.01;97316.31;29395;209;63009;-66
2021/07/10 00:46:48;;;;;;;0.40;0.40;;;;;;;14.28;81.10;97312.75;29395;223;63005;-66
2021/07/10 00:47:19;;;;;;;0.40;0.40;;;;;;;14.27;81.09;97311.16;29395;227;63009;-67
2021/07/10 00:47:51;;;;;;;0.40;0.40;;;;;;;14.25;81.06;97308.72;29395;229;63004;-65
2021/07/10 00:48:23;;;;;;;0.40;0.40;;;;;;;14.25;81.13;97307.91;29395;230;63027;-66
2021/07/10 00:48:54;;;;;;;0.40;0.40;;;;;;;14.24;81.04;97306.28;29395;220;63004;-67
2021/07/10 00:49:26;;;;;;;0.50;0.50;;;;;;;14.24;81.15;97300.84;29395;227;63009;-56
2021/07/10 00:49:57;;;;;;;0.40;0.40;;;;;;;14.24;81.00;97303.56;29394;220;64008;-66
2021/07/10 00:50:28;;;;;;;0.40;0.40;;;;;;;14.23;81.17;97302.75;29395;295;63018;-66
2021/07/10 00:51:01;;;;;;;0.40;0.40;;;;;;;14.24;81.07;97307.09;29394;210;64008;-66
2021/07/10 00:51:32;;;;;;;0.40;0.40;;;;;;;14.23;81.53;97297.31;29395;238;63009;-65
2021/07/10 00:52:04;;;;;;;0.40;0.40;;;;;;;14.22;81.67;97294.87;29395;235;63005;-65
2021/07/10 00:52:36;;;;;;;0.40;0.40;;;;;;;14.23;81.30;97299.22;29395;287;63009;-66
2021/07/10 00:53:07;;;;;;;0.40;0.40;;;;;;;14.22;81.13;97297.59;29394;227;64022;-55
2021/07/10 00:53:39;;;;;;;0.40;0.40;;;;;;;14.23;81.17;97299.22;29395;298;63018;-67
2021/07/10 00:54:10;;;;;;;0.40;0.40;;;;;;;14.26;80.56;97293.16;29395;222;63005;-66
2021/07/10 00:54:42;;;;;;;0.40;0.40;;;;;;;14.26;80.40;97293.97;29395;302;63009;-66
2021/07/10 00:55:14;;;;;;;0.40;0.40;;;;;;;14.28;80.59;97296.38;29395;210;63004;-54
2021/07/10 00:55:45;;;;;;;0.40;0.40;;;;;;;14.26;80.20;97287.69;29395;249;63009;-55
2021/07/10 00:56:18;;;;;;;0.40;0.40;;;;;;;14.26;80.45;97298.62;29394;267;64009;-56
2021/07/10 00:56:49;;;;;;;0.40;0.40;;;;;;;14.25;80.58;97291.53;29395;226;63026;-66
2021/07/10 00:57:22;;;;;;;0.40;0.40;;;;;;;14.24;80.57;97289.94;29395;214;63004;-57
2021/07/10 00:57:54;;;;;;;0.90;0.85;;;;;;;14.25;80.58;97288.81;29395;250;63008;-66
2021/07/10 00:58:27;;;;;;;0.40;0.40;;;;;;;14.25;80.21;97286.88;29395;328;63005;-65
2021/07/10 00:59:00;;;;;;;0.40;0.40;;;;;;;14.28;79.78;97293.66;29395;225;63009;-66
2021/07/10 00:59:33;;;;;;;0.40;0.40;;;;;;;14.30;79.96;97294.97;29395;207;63005;-65
2021/07/10 01:00:10;;;;;;;0.40;0.40;;;;;;;14.30;79.69;97288.69;29395;207;63009;-66
2021/07/10 01:00:41;;;;;;;0.40;0.40;;;;;;;14.30;79.86;97288.69;29395;202;63005;-66
2021/07/10 01:01:15;;;;;;;0.40;0.40;;;;;;;14.29;80.17;97292.53;29394;248;64013;-56
2021/07/10 01:01:46;;;;;;;0.40;0.40;;;;;;;14.27;80.08;97289.31;29395;221;63005;-57
2021/07/10 01:02:20;;;;;;;0.40;0.40;;;;;;;14.25;79.87;97286.09;29395;276;63009;-67
2021/07/10 01:02:54;;;;;;;0.40;0.40;;;;;;;14.25;80.47;97286.09;29395;210;63004;-57
2021/07/10 01:03:28;;;;;;;0.40;0.40;;;;;;;14.24;80.30;97279.81;29394;223;64013;-56
2021/07/10 01:03:59;;;;;;;0.40;0.40;;;;;;;14.23;80.16;97277.38;29395;204;63004;-56
2021/07/10 01:04:30;;;;;;;0.40;0.40;;;;;;;14.23;79.95;97277.38;29395;204;63009;-65
2021/07/10 01:05:06;;;;;;;0.40;0.40;;;;;;;14.22;80.12;97276.59;29395;212;63004;-57
2021/07/10 01:05:39;;;;;;;0.40;0.40;;;;;;;14.22;80.03;97278.50;29395;196;63009;-65
2021/07/10 01:06:12;;;;;;;0.40;0.40;;;;;;;14.23;79.84;97271.94;29394;205;64009;-66
2021/07/10 01:06:43;;;;;;;0.40;0.40;;;;;;;14.23;79.71;97274.66;29395;251;63009;-57
2021/07/10 01:07:15;;;;;;;0.40;0.40;;;;;;;14.24;80.00;97273.53;29395;318;63005;-66
2021/07/10 01:07:46;;;;;;;0.40;0.40;;;;;;;14.23;79.82;97274.66;29395;219;63009;-66
2021/07/10 01:08:17;;;;;;;0.40;0.40;;;;;;;14.21;79.98;97274.16;29395;237;63005;-57
2021/07/10 01:08:48;;;;;;;0.40;0.40;;;;;;;14.21;79.81;97274.16;29395;227;63009;-56
2021/07/10 01:09:20;;;;;;;0.40;0.40;;;;;;;14.21;80.14;97268.69;29395;271;63005;-56
2021/07/10 01:09:51;;;;;;;0.40;0.40;;;;;;;14.19;80.24;97271.75;29395;198;63009;-65
2021/07/10 01:10:24;;;;;;;0.40;0.40;;;;;;;14.17;79.73;97268.53;29395;283;63004;-65
2021/07/10 01:10:57;;;;;;;0.50;0.50;;;;;;;14.16;79.98;97271.56;29394;214;64013;-66
2021/07/10 01:11:28;;;;;;;0.40;0.40;;;;;;;14.14;80.39;97273.78;29395;213;63004;-66
2021/07/10 01:12:00;;;;;;;0.40;0.40;;;;;;;14.12;80.10;97273.28;29395;202;63024;-66
2021/07/10 01:12:32;;;;;;;0.40;0.40;;;;;;;14.11;80.74;97279.84;29395;353;63004;-66
2021/07/10 01:13:04;;;;;;;0.40;0.40;;;;;;;14.07;80.65;97277.75;29395;231;63009;-66
2021/07/10 01:13:36;;;;;;;0.40;0.40;;;;;;;14.06;80.51;97276.12;29394;219;64009;-66
2021/07/10 01:14:11;;;;;;;0.40;0.40;;;;;;;14.04;80.83;97280.28;29395;235;63009;-65
2021/07/10 01:14:46;;;;;;;0.40;0.40;;;;;;;14.01;80.96;97276.22;29394;226;64009;-65
2021/07/10 01:15:21;;;;;;;0.40;0.40;;;;;;;14.00;81.09;97277.34;29394;309;64013;-67
2021/07/10 01:15:53;;;;;;;0.50;0.50;;;;;;;13.98;81.21;97279.56;29395;324;63005;-65
2021/07/10 01:16:24;;;;;;;0.40;0.40;;;;;;;13.98;81.10;97276.84;29395;218;63009;-66
2021/07/10 01:16:55;;;;;;;0.50;0.50;;;;;;;13.99;81.42;97278.44;29395;249;63005;-66
2021/07/10 01:17:27;;;;;;;0.43;0.43;;;;;;;14.00;81.22;97280.06;29394;218;64013;-56
2021/07/10 01:17:58;;;;;;;0.40;0.40;;;;;;;14.00;80.82;97274.63;29395;216;63004;-66
2021/07/10 01:18:29;;;;;;;0.40;0.40;;;;;;;14.01;80.99;97273.50;29395;339;63009;-66
2021/07/10 01:19:01;;;;;;;0.40;0.40;;;;;;;14.04;80.77;97275.62;29394;198;64009;-66
2021/07/10 01:19:32;;;;;;;0.40;0.40;;;;;;;14.05;80.50;97277.25;29395;266;63013;-66
2021/07/10 01:20:12;;;;;;;0.40;0.40;;;;;;;14.06;80.88;97278.84;29395;222;63004;-66
2021/07/10 01:20:54;;;;;;;0.45;0.45;;;;;;;14.06;80.82;97278.84;29417;255;63009;-66
2021/07/10 01:21:25;;;;;;;0.40;0.40;;;;;;;14.06;80.71;97272.59;29395;216;63005;-66
2021/07/10 01:21:58;;;;;;;0.40;0.40;;;;;;;14.06;80.60;97278.84;29395;217;63009;-67
2021/07/10 01:22:32;;;;;;;0.43;0.43;;;;;;;14.08;80.69;97282.09;29395;202;63005;-66
2021/07/10 01:23:04;;;;;;;0.40;0.40;;;;;;;14.07;80.64;97283.19;29395;225;63009;-65
2021/07/10 01:23:35;;;;;;;0.40;0.40;;;;;;;14.04;80.66;97283.81;29395;203;63005;-66
2021/07/10 01:24:06;;;;;;;0.40;0.40;;;;;;;14.02;80.44;97282.50;29394;372;64013;-56
2021/07/10 01:24:38;;;;;;;0.40;0.40;;;;;;;14.00;80.91;97279.25;29395;221;63005;-65
2021/07/10 01:25:13;;;;;;;0.40;0.40;;;;;;;13.98;80.93;97274.09;29395;197;63009;-57
2021/07/10 01:25:46;;;;;;;0.40;0.40;;;;;;;13.96;80.93;97281.78;29395;202;63004;-65
2021/07/10 01:26:21;;;;;;;0.40;0.40;;;;;;;13.95;81.00;97279.37;29395;283;63009;-66
2021/07/10 01:26:53;;;;;;;0.40;0.40;;;;;;;13.94;81.24;97278.56;29395;207;63004;-56
2021/07/10 01:27:24;;;;;;;0.40;0.40;;;;;;;13.94;81.16;97281.28;29396;196;63008;-66
2021/07/10 01:27:56;;;;;;;0.40;0.40;;;;;;;13.95;81.09;97273.91;29396;203;63004;-66
2021/07/10 01:28:27;;;;;;;0.40;0.40;;;;;;;13.94;81.09;97281.28;29395;232;64014;-66
2021/07/10 01:28:58;;;;;;;0.40;0.40;;;;;;;13.93;81.26;97274.22;29396;233;63005;-65
2021/07/10 01:29:35;;;;;;;0.40;0.40;;;;;;;13.93;81.14;97279.66;29396;203;63009;-66
2021/07/10 01:30:11;;;;;;;0.40;0.40;;;;;;;13.90;81.44;97277.53;29396;207;63011;-56
2021/07/10 01:30:44;;;;;;;0.40;0.40;;;;;;;13.88;81.22;97279.78;29396;243;63009;-66
2021/07/10 01:31:18;;;;;;;0.40;0.40;;;;;;;13.87;81.60;97280.87;29395;222;63005;-66
2021/07/10 01:31:50;;;;;;;0.40;0.40;;;;;;;13.85;82.06;97282.31;29395;226;64013;-66
2021/07/10 01:32:21;;;;;;;0.40;0.40;;;;;;;13.82;82.16;97278.28;29396;300;63004;-57
2021/07/10 01:32:54;;;;;;;0.40;0.40;;;;;;;13.81;81.79;97276.66;29396;340;63009;-65
2021/07/10 01:33:25;;;;;;;0.40;0.40;;;;;;;13.81;81.96;97284.84;29396;197;63016;-66
2021/07/10 01:34:00;;;;;;;0.40;0.40;;;;;;;13.81;81.98;97276.66;29396;245;63009;-66
2021/07/10 01:34:34;;;;;;;0.40;0.40;;;;;;;13.83;82.17;97279.91;29396;209;63004;-66
2021/07/10 01:35:07;;;;;;;0.35;0.35;;;;;;;13.83;81.74;97274.44;29396;261;63009;-66
2021/07/10 01:35:42;;;;;;;0.40;0.40;;;;;;;13.84;81.55;97276.06;29395;309;64024;-66
2021/07/10 01:36:13;;;;;;;0.40;0.40;;;;;;;13.88;81.52;97276.22;29396;370;63009;-66
2021/07/10 01:36:46;;;;;;;0.40;0.40;;;;;;;13.89;81.64;97275.94;29396;247;63008;-56
2021/07/10 01:37:21;;;;;;;0.40;0.40;;;;;;;13.92;81.09;97267.13;29396;246;63009;-66
2021/07/10 01:37:52;;;;;;;0.50;0.50;;;;;;;13.94;81.04;97267.63;29396;249;63005;-65
2021/07/10 01:38:23;;;;;;;0.40;0.40;;;;;;;13.95;81.11;97272.00;29396;207;63009;-66
2021/07/10 01:38:54;;;;;;;0.50;0.50;;;;;;;13.94;81.16;97270.38;29395;239;64009;-65
2021/07/10 01:39:25;;;;;;;0.40;0.40;;;;;;;13.94;80.91;97272.28;29396;314;63009;-66
2021/07/10 01:39:56;;;;;;;0.40;0.40;;;;;;;13.92;81.10;97272.59;29396;220;63004;-66
2021/07/10 01:40:27;;;;;;;0.47;0.47;;;;;;;13.91;80.87;97270.97;29396;312;63009;-64
2021/07/10 01:40:59;;;;;;;0.40;0.40;;;;;;;13.89;81.30;97273.19;29396;316;63004;-64
2021/07/10 01:41:47;;;;;;;0.40;0.40;;;;;;;13.90;81.05;97269.38;29396;241;63009;-65
2021/07/10 01:42:19;;;;;;;0.50;0.50;;;;;;;13.91;81.34;97267.44;29396;206;63004;-64
2021/07/10 01:42:51;;;;;;;0.40;0.40;;;;;;;13.91;81.28;97265.53;29396;210;63008;-65
2021/07/10 01:43:23;;;;;;;0.40;0.40;;;;;;;13.92;81.21;97260.88;29396;208;63005;-65
2021/07/10 01:43:55;;;;;;;0.40;0.40;;;;;;;13.89;81.23;97262.28;29395;344;64014;-65
2021/07/10 01:44:26;;;;;;;0.40;0.40;;;;;;;13.89;81.29;97265.00;29396;332;63005;-57
2021/07/10 01:44:58;;;;;;;0.40;0.40;;;;;;;13.88;81.07;97260.69;29396;216;63009;-66
2021/07/10 01:45:31;;;;;;;0.40;0.40;;;;;;;13.86;81.15;97268.34;29396;199;63005;-66
2021/07/10 01:46:03;;;;;;;0.40;0.40;;;;;;;13.84;81.34;97265.16;29396;280;63026;-65
2021/07/10 01:46:34;;;;;;;0.40;0.40;;;;;;;13.83;81.54;97258.06;29396;225;63005;-66
2021/07/10 01:47:06;;;;;;;0.40;0.40;;;;;;;13.80;81.59;97260.59;29396;204;63009;-65
2021/07/10 01:47:38;;;;;;;0.50;0.50;;;;;;;13.77;81.75;97259.28;29396;216;63004;-65
2021/07/10 01:48:12;;;;;;;0.45;0.45;;;;;;;13.72;81.68;97252.03;29396;281;63009;-64
2021/07/10 01:48:43;;;;;;;0.50;0.50;;;;;;;13.69;81.80;97246.38;29396;235;63004;-65
2021/07/10 01:49:15;;;;;;;0.50;0.50;;;;;;;13.68;82.13;97244.75;29395;316;64013;-66
2021/07/10 01:49:46;;;;;;;0.40;0.40;;;;;;;13.67;82.16;97245.84;29396;226;63004;-65
2021/07/10 01:50:18;;;;;;;0.45;0.45;;;;;;;13.66;82.30;97252.41;29396;355;63008;-65
2021/07/10 01:50:50;;;;;;;0.40;0.40;;;;;;;13.65;82.39;97250.81;29396;269;63005;-58
2021/07/10 01:51:22;;;;;;;0.50;0.50;;;;;;;13.65;82.22;97245.34;29396;203;63017;-66
2021/07/10 01:51:54;;;;;;;0.50;0.50;;;;;;;13.66;82.35;97246.97;29396;360;63005;-66
2021/07/10 01:52:26;;;;;;;0.40;0.40;;;;;;;13.63;82.09;97244.84;29396;316;63009;-66
2021/07/10 01:52:58;;;;;;;0.40;0.40;;;;;;;13.65;82.41;97245.34;29396;236;63005;-66
2021/07/10 01:53:29;;;;;;;0.40;0.40;;;;;;;13.64;82.35;97246.47;29396;309;63009;-65
2021/07/10 01:54:00;;;;;;;0.50;0.50;;;;;;;13.61;82.43;97247.06;29396;203;63008;-56
2021/07/10 01:54:31;;;;;;;0.50;0.50;;;;;;;13.61;82.14;97244.34;29395;328;64013;-65
2021/07/10 01:55:06;;;;;;;0.50;0.50;;;;;;;13.60;82.60;97245.44;29395;197;64004;-65
2021/07/10 01:55:37;;;;;;;0.47;0.47;;;;;;;13.59;82.37;97243.84;29396;265;63009;-65
2021/07/10 01:56:09;;;;;;;0.40;0.40;;;;;;;13.57;82.21;97243.31;29396;237;63010;-65
2021/07/10 01:56:40;;;;;;;0.43;0.43;;;;;;;13.55;82.38;97251.00;29396;202;63009;-65
2021/07/10 01:57:11;;;;;;;0.40;0.40;;;;;;;13.54;82.59;97250.19;29396;293;63004;-59
2021/07/10 01:57:49;;;;;;;0.50;0.50;;;;;;;13.56;82.37;97247.16;29396;203;63008;-66
2021/07/10 01:58:20;;;;;;;0.40;0.40;;;;;;;13.54;82.73;97250.19;29396;268;63004;-68
2021/07/10 01:58:51;;;;;;;0.40;0.40;;;;;;;13.54;82.62;97249.37;29396;278;63009;-56
2021/07/10 01:59:22;;;;;;;0.40;0.40;;;;;;;13.54;82.45;97249.37;29395;205;64009;-66
2021/07/10 01:59:53;;;;;;;0.40;0.40;;;;;;;13.57;82.74;97248.78;29396;216;63009;-56
2021/07/10 02:00:27;;;;;;;0.50;0.50;;;;;;;13.56;82.62;97252.62;29396;216;63005;-66
2021/07/10 02:00:59;;;;;;;0.40;0.40;;;;;;;13.56;82.77;97247.16;29396;236;63009;-66
2021/07/10 02:01:32;;;;;;;0.50;0.50;;;;;;;13.55;82.65;97249.06;29396;339;63005;-66
2021/07/10 02:02:06;;;;;;;0.50;0.50;;;;;;;13.54;82.35;97250.19;29396;258;63009;-66
2021/07/10 02:02:39;;;;;;;0.50;0.50;;;;;;;13.54;82.53;97249.37;29396;314;63004;-66
2021/07/10 02:03:14;;;;;;;0.50;0.50;;;;;;;13.52;82.65;97243.41;29396;209;63009;-65
2021/07/10 02:03:46;;;;;;;0.50;0.50;;;;;;;13.53;82.76;97248.56;29396;266;63004;-66
2021/07/10 02:04:19;;;;;;;0.50;0.50;;;;;;;13.51;82.70;97247.28;29396;320;63008;-66
2021/07/10 02:04:52;;;;;;;0.50;0.50;;;;;;;13.51;82.64;97248.09;29395;251;64008;-65
2021/07/10 02:05:26;;;;;;;0.40;0.40;;;;;;;13.50;82.64;97248.41;29396;260;63009;-66
2021/07/10 02:05:58;;;;;;;0.50;0.50;;;;;;;13.49;82.74;97249.50;29396;284;63005;-66
2021/07/10 02:06:29;;;;;;;0.50;0.50;;;;;;;13.49;82.89;97249.50;29395;205;64014;-66
2021/07/10 02:07:01;;;;;;;0.50;0.50;;;;;;;13.48;82.98;97245.16;29396;214;63005;-66
2021/07/10 02:07:33;;;;;;;0.50;0.50;;;;;;;13.47;82.65;97244.34;29396;325;63009;-66
2021/07/10 02:08:05;;;;;;;0.40;0.40;;;;;;;13.47;83.05;97243.53;29396;210;63005;-67
2021/07/10 02:08:39;;;;;;;0.40;0.40;;;;;;;13.47;82.73;97249.81;29396;237;63009;-67
2021/07/10 02:09:11;;;;;;;0.40;0.40;;;;;;;13.48;83.06;97242.44;29395;198;64009;-55
2021/07/10 02:09:46;;;;;;;0.50;0.50;;;;;;;13.49;82.80;97241.34;29395;205;64013;-65
2021/07/10 02:10:19;;;;;;;0.40;0.40;;;;;;;13.50;83.05;97245.66;29396;252;63004;-55
2021/07/10 02:10:50;;;;;;;0.40;0.40;;;;;;;13.50;82.66;97242.94;29396;243;63009;-66
2021/07/10 02:11:22;;;;;;;0.40;0.40;;;;;;;13.50;83.03;97245.66;29397;286;63004;-65
2021/07/10 02:11:54;;;;;;;0.40;0.40;;;;;;;13.51;82.67;97241.84;29397;202;63008;-65
2021/07/10 02:12:26;;;;;;;0.40;0.40;;;;;;;13.52;82.83;97241.50;29397;241;63014;-66
2021/07/10 02:13:01;;;;;;;0.40;0.40;;;;;;;13.51;82.55;97248.09;29397;244;63009;-67
2021/07/10 02:13:35;;;;;;;0.50;0.50;;;;;;;13.50;82.83;97238.31;29397;222;63005;-67
2021/07/10 02:14:06;;;;;;;0.43;0.43;;;;;;;13.48;82.54;97240.53;29397;259;63009;-67
2021/07/10 02:14:38;;;;;;;0.50;0.50;;;;;;;13.47;82.76;97232.66;29396;216;64009;-66
2021/07/10 02:15:10;;;;;;;0.47;0.47;;;;;;;13.45;82.86;97237.59;29397;270;63009;-66
2021/07/10 02:15:42;;;;;;;0.40;0.40;;;;;;;13.44;82.74;97235.97;29397;253;63005;-66
2021/07/10 02:16:14;;;;;;;0.40;0.40;;;;;;;13.44;82.87;97238.69;29396;202;64013;-67
2021/07/10 02:16:48;;;;;;;0.50;0.50;;;;;;;13.44;82.89;97239.50;29397;198;63005;-67
2021/07/10 02:17:19;;;;;;;0.40;0.40;;;;;;;13.43;82.80;97232.44;29397;337;63009;-66
2021/07/10 02:17:54;;;;;;;0.50;0.50;;;;;;;13.41;83.17;97235.47;29397;198;63004;-65
2021/07/10 02:18:26;;;;;;;0.43;0.43;;;;;;;13.41;83.24;97234.66;29397;199;63009;-67
2021/07/10 02:18:58;;;;;;;0.50;0.50;;;;;;;13.39;83.04;97234.97;29396;202;64009;-67
2021/07/10 02:19:29;;;;;;;0.40;0.40;;;;;;;13.39;83.20;97234.16;29397;248;63008;-65
2021/07/10 02:20:01;;;;;;;0.50;0.50;;;;;;;13.37;83.34;97234.44;29397;232;63004;-65
2021/07/10 02:20:33;;;;;;;0.47;0.47;;;;;;;13.38;83.38;97224.34;29397;214;63009;-66
2021/07/10 02:21:05;;;;;;;0.40;0.40;;;;;;;13.39;83.43;97232.22;29397;242;63018;-66
2021/07/10 02:21:39;;;;;;;0.40;0.40;;;;;;;13.37;83.20;97234.44;29396;203;64014;-67
2021/07/10 02:22:10;;;;;;;0.50;0.50;;;;;;;13.36;83.70;97232.84;29397;314;63005;-66
2021/07/10 02:22:42;;;;;;;0.40;0.40;;;;;;;13.35;83.56;97235.88;29397;209;63009;-66
2021/07/10 02:23:16;;;;;;;0.40;0.40;;;;;;;13.33;83.68;97238.88;29397;281;63005;-66
2021/07/10 02:23:48;;;;;;;0.77;0.77;;;;;;;13.32;83.44;97231.00;29397;204;63009;-65
2021/07/10 02:24:20;;;;;;;0.50;0.50;;;;;;;13.33;83.59;97227.97;29397;208;63005;-66
2021/07/10 02:24:51;;;;;;;0.40;0.40;;;;;;;13.37;83.47;97229.00;29396;198;64013;-66
2021/07/10 02:25:25;;;;;;;0.40;0.40;;;;;;;13.38;83.28;97230.62;29396;220;64009;-65
2021/07/10 02:25:56;;;;;;;0.50;0.50;;;;;;;13.39;82.92;97229.50;29396;290;63025;-66
2021/07/10 02:26:28;;;;;;;0.40;0.40;;;;;;;13.43;82.73;97232.44;29396;256;63004;-65
2021/07/10 02:27:00;;;;;;;0.50;0.50;;;;;;;13.44;82.65;97233.25;29396;218;63008;-67
2021/07/10 02:27:32;;;;;;;0.50;0.50;;;;;;;13.45;82.59;97229.41;29396;272;63004;-66
2021/07/10 02:28:03;;;;;;;0.50;0.50;;;;;;;13.44;82.61;97234.06;29396;278;63009;-65
2021/07/10 02:28:35;;;;;;;0.50;0.50;;;;;;;13.43;82.77;97228.91;29396;202;63005;-65
2021/07/10 02:29:06;;;;;;;0.50;0.50;;;;;;;13.44;82.77;97230.53;29396;251;63009;-66
2021/07/10 02:29:38;;;;;;;0.40;0.40;;;;;;;13.44;82.78;97231.34;29396;198;63005;-67
2021/07/10 02:30:13;;;;;;;0.50;0.50;;;;;;;13.44;82.60;97227.78;29396;214;63009;-65
2021/07/10 02:30:45;;;;;;;0.40;0.40;;;;;;;13.43;82.59;97227.00;29395;214;64009;-65
2021/07/10 02:31:17;;;;;;;0.40;0.40;;;;;;;13.41;82.73;97224.56;29396;236;63020;-66
2021/07/10 02:31:49;;;;;;;0.40;0.40;;;;;;;13.39;83.16;97226.78;29396;217;63005;-66
2021/07/10 02:32:20;;;;;;;0.40;0.40;;;;;;;13.39;83.16;97226.78;29395;230;64013;-65
2021/07/10 02:32:53;;;;;;;0.40;0.40;;;;;;;13.36;82.99;97221.94;29396;210;63004;-65
2021/07/10 02:33:25;;;;;;;0.50;0.50;;;;;;;13.36;83.07;97227.37;29396;218;63009;-65
2021/07/10 02:33:56;;;;;;;0.40;0.40;;;;;;;13.36;83.26;97229.31;29396;261;63004;-67